createdAt,value
2018-12-25T00:01:34.015Z,61.29
2018-12-25T00:04:02.943Z,61.30
2018-12-25T00:06:32.083Z,61.36
2018-12-25T00:09:01.346Z,61.40
2018-12-25T00:11:30.513Z,61.47
2018-12-25T00:13:59.733Z,61.56
2018-12-25T00:16:29.031Z,61.59
2018-12-25T00:19:05.920Z,61.61
2018-12-25T00:21:29.019Z,61.66
2018-12-25T00:23:57.955Z,61.73
2018-12-25T00:26:27.554Z,61.92
2018-12-25T00:28:57.568Z,62.08
2018-12-25T00:31:27.358Z,62.17
2018-12-25T00:33:56.435Z,62.14
2018-12-25T00:36:25.874Z,62.09
2018-12-25T00:38:55.078Z,62.07
2018-12-25T00:41:24.087Z,62.04
2018-12-25T00:43:52.929Z,61.98
2018-12-25T00:46:22.376Z,61.91
2018-12-25T00:48:51.585Z,61.91
2018-12-25T00:51:20.487Z,61.92
2018-12-25T00:53:49.357Z,61.95
2018-12-25T00:56:18.835Z,62.00
2018-12-25T00:58:48.077Z,62.03
2018-12-25T01:01:18.003Z,62.03
2018-12-25T01:03:47.583Z,62.10
2018-12-25T01:06:16.740Z,62.15
2018-12-25T01:08:45.688Z,62.17
2018-12-25T01:11:15.963Z,62.17
2018-12-25T01:13:45.197Z,62.21
2018-12-25T01:16:14.183Z,62.27
2018-12-25T01:18:43.074Z,62.28
2018-12-25T01:21:12.663Z,62.27
2018-12-25T01:23:41.629Z,62.26
2018-12-25T01:26:10.666Z,62.26
2018-12-25T01:28:39.611Z,62.29
2018-12-25T01:31:08.885Z,62.35
2018-12-25T01:33:38.274Z,62.44
2018-12-25T01:36:07.573Z,62.47
2018-12-25T01:38:36.888Z,62.53
2018-12-25T01:41:06.228Z,62.58
2018-12-25T01:43:35.203Z,62.67
2018-12-25T01:46:04.612Z,62.76
2018-12-25T01:48:34.306Z,62.93
2018-12-25T01:51:03.331Z,63.04
2018-12-25T01:53:32.608Z,63.06
2018-12-25T01:56:01.624Z,63.14
2018-12-25T01:58:31.182Z,63.18
2018-12-25T02:01:00.736Z,63.25
2018-12-25T02:03:30.283Z,63.26
2018-12-25T02:05:59.323Z,63.26
2018-12-25T02:08:28.546Z,63.20
2018-12-25T02:10:57.522Z,63.15
2018-12-25T02:13:26.581Z,63.17
2018-12-25T02:15:55.891Z,63.21
2018-12-25T02:18:25.095Z,63.19
2018-12-25T02:20:54.068Z,63.29
2018-12-25T02:23:23.110Z,63.35
2018-12-25T02:25:51.993Z,63.38
2018-12-25T02:28:21.590Z,63.38
2018-12-25T02:30:50.568Z,63.39
2018-12-25T02:33:19.850Z,63.43
2018-12-25T02:35:49.080Z,63.51
2018-12-25T02:38:18.353Z,63.60
2018-12-25T02:40:47.797Z,63.74
2018-12-25T02:43:17.378Z,63.76
2018-12-25T02:45:46.267Z,63.75
2018-12-25T02:48:15.097Z,63.86
2018-12-25T02:50:43.974Z,63.84
2018-12-25T02:53:12.897Z,63.85
2018-12-25T02:55:41.862Z,63.87
2018-12-25T02:58:11.555Z,63.84
2018-12-25T03:00:40.966Z,63.80
2018-12-25T03:03:10.105Z,63.75
2018-12-25T03:05:39.303Z,63.68
2018-12-25T03:08:08.843Z,63.63
2018-12-25T03:10:38.362Z,63.61
2018-12-25T03:13:07.878Z,63.57
2018-12-25T03:15:37.166Z,63.51
2018-12-25T03:18:06.539Z,63.46
2018-12-25T03:20:35.888Z,63.44
2018-12-25T03:23:05.178Z,63.39
2018-12-25T03:25:34.435Z,63.40
2018-12-25T03:28:03.702Z,63.40
2018-12-25T03:30:32.690Z,63.38
2018-12-25T03:33:01.668Z,63.36
2018-12-25T03:35:30.856Z,63.38
2018-12-25T03:37:59.735Z,63.37
2018-12-25T03:40:29.667Z,63.35
2018-12-25T03:42:58.540Z,63.36
2018-12-25T03:45:28.423Z,63.36
2018-12-25T03:47:57.883Z,63.39
2018-12-25T03:50:27.137Z,63.41
2018-12-25T03:52:56.536Z,63.38
2018-12-25T03:55:25.772Z,63.42
2018-12-25T03:57:54.913Z,63.47
2018-12-25T04:00:23.942Z,63.46
2018-12-25T04:02:53.282Z,63.45
2018-12-25T04:05:22.248Z,63.47
2018-12-25T04:07:51.591Z,63.52
2018-12-25T04:10:20.861Z,63.66
2018-12-25T04:12:49.820Z,63.69
2018-12-25T04:15:18.802Z,63.81
2018-12-25T04:17:48.373Z,63.89
2018-12-25T04:20:19.997Z,63.92
2018-12-25T04:22:48.921Z,63.94
2018-12-25T04:25:17.958Z,63.98
2018-12-25T04:27:47.450Z,64.06
2018-12-25T04:30:16.445Z,64.08
2018-12-25T04:32:45.823Z,64.15
2018-12-25T04:35:14.780Z,64.22
2018-12-25T04:37:44.004Z,64.31
2018-12-25T04:40:13.284Z,64.38
2018-12-25T04:42:43.280Z,64.55
2018-12-25T04:45:13.359Z,64.57
2018-12-25T04:47:42.551Z,64.61
2018-12-25T04:50:11.559Z,64.66
2018-12-25T04:52:40.840Z,64.64
2018-12-25T04:55:10.303Z,64.60
2018-12-25T04:57:39.509Z,64.58
2018-12-25T05:00:08.831Z,64.52
2018-12-25T05:02:37.707Z,64.50
2018-12-25T05:05:06.715Z,64.52
2018-12-25T05:07:35.626Z,64.53
2018-12-25T05:10:04.646Z,64.59
2018-12-25T05:12:33.814Z,64.74
2018-12-25T05:15:03.362Z,64.83
2018-12-25T05:17:32.362Z,64.87
2018-12-25T05:20:01.254Z,64.96
2018-12-25T05:22:30.297Z,64.96
2018-12-25T05:24:59.484Z,64.92
2018-12-25T05:27:28.752Z,64.89
2018-12-25T05:29:57.698Z,64.87
2018-12-25T05:32:27.310Z,64.84
2018-12-25T05:34:57.129Z,64.88
2018-12-25T05:37:26.176Z,64.97
2018-12-25T05:39:55.325Z,65.08
2018-12-25T05:42:24.924Z,65.15
2018-12-25T05:44:54.501Z,65.20
2018-12-25T05:47:24.224Z,65.25
2018-12-25T05:49:53.132Z,65.29
2018-12-25T05:52:22.415Z,65.31
2018-12-25T05:54:51.724Z,65.35
2018-12-25T05:57:21.088Z,65.41
2018-12-25T05:59:50.775Z,65.45
2018-12-25T06:02:20.081Z,65.44
2018-12-25T06:04:49.555Z,65.42
2018-12-25T06:07:18.857Z,65.43
2018-12-25T06:09:48.132Z,65.41
2018-12-25T06:12:17.459Z,65.34
2018-12-25T06:14:46.715Z,65.27
2018-12-25T06:17:16.020Z,65.17
2018-12-25T06:19:45.366Z,64.99
2018-12-25T06:22:14.625Z,64.88
2018-12-25T06:24:44.544Z,64.81
2018-12-25T06:27:13.985Z,64.71
2018-12-25T06:29:43.190Z,64.65
2018-12-25T06:32:12.066Z,64.60
2018-12-25T06:34:41.473Z,64.56
2018-12-25T06:37:10.787Z,64.51
2018-12-25T06:39:39.753Z,64.40
2018-12-25T06:42:08.635Z,64.23
2018-12-25T06:44:38.049Z,64.19
2018-12-25T06:47:07.885Z,64.08
2018-12-25T06:49:36.808Z,63.91
2018-12-25T06:52:06.270Z,63.80
2018-12-25T06:54:35.888Z,63.80
2018-12-25T06:57:05.189Z,63.66
2018-12-25T06:59:34.477Z,63.62
2018-12-25T07:02:03.976Z,63.57
2018-12-25T07:04:33.753Z,63.54
2018-12-25T07:07:02.805Z,63.59
2018-12-25T07:09:32.129Z,63.55
2018-12-25T07:12:01.514Z,63.44
2018-12-25T07:14:30.466Z,63.48
2018-12-25T07:16:59.488Z,63.54
2018-12-25T07:19:29.308Z,63.55
2018-12-25T07:21:58.294Z,63.54
2018-12-25T07:24:28.001Z,63.48
2018-12-25T07:26:57.334Z,63.42
2018-12-25T07:29:26.495Z,63.42
2018-12-25T07:31:55.753Z,63.33
2018-12-25T07:34:24.839Z,63.36
2018-12-25T07:36:53.844Z,63.30
2018-12-25T07:39:24.560Z,63.25
2018-12-25T07:41:54.302Z,63.30
2018-12-25T07:44:23.145Z,63.34
2018-12-25T07:46:52.629Z,63.19
2018-12-25T07:49:21.568Z,63.11
2018-12-25T07:51:50.453Z,63.58
2018-12-25T07:54:19.828Z,64.44
2018-12-25T07:56:48.715Z,64.68
2018-12-25T07:59:17.903Z,64.26
2018-12-25T08:01:49.340Z,64.22
2018-12-25T08:04:17.862Z,64.69
2018-12-25T08:06:47.375Z,64.63
2018-12-25T08:09:16.873Z,64.13
2018-12-25T08:11:45.723Z,64.40
2018-12-25T08:14:14.837Z,64.21
2018-12-25T08:16:44.354Z,64.20
2018-12-25T08:19:13.546Z,64.17
2018-12-25T08:21:42.468Z,64.19
2018-12-25T08:24:11.858Z,64.00
2018-12-25T08:26:40.781Z,64.09
2018-12-25T08:29:09.709Z,63.59
2018-12-25T08:31:39.149Z,63.76
2018-12-25T08:34:08.653Z,63.81
2018-12-25T08:36:38.290Z,63.54
2018-12-25T08:39:08.465Z,63.53
2018-12-25T08:41:37.800Z,63.27
2018-12-25T08:44:07.498Z,63.17
2018-12-25T08:46:37.004Z,63.08
2018-12-25T08:49:06.250Z,62.83
2018-12-25T08:51:37.717Z,62.73
2018-12-25T08:54:06.752Z,62.66
2018-12-25T08:56:35.843Z,62.60
2018-12-25T08:59:05.092Z,62.54
2018-12-25T09:01:34.255Z,62.55
2018-12-25T09:04:03.415Z,62.52
2018-12-25T09:06:32.637Z,62.49
2018-12-25T09:09:02.236Z,62.29
2018-12-25T09:11:31.861Z,62.01
2018-12-25T09:14:00.782Z,62.02
2018-12-25T09:16:30.045Z,62.06
2018-12-25T09:18:59.570Z,61.97
2018-12-25T09:21:28.585Z,61.99
2018-12-25T09:23:57.812Z,61.95
2018-12-25T09:26:27.355Z,61.64
2018-12-25T09:28:56.683Z,61.74
2018-12-25T09:31:26.645Z,61.52
2018-12-25T09:33:56.162Z,61.43
2018-12-25T09:36:25.277Z,61.37
2018-12-25T09:38:54.703Z,61.61
2018-12-25T09:41:23.759Z,61.42
2018-12-25T09:43:52.975Z,61.55
2018-12-25T09:46:21.888Z,61.51
2018-12-25T09:48:51.646Z,61.48
2018-12-25T09:51:21.351Z,61.43
2018-12-25T09:53:51.004Z,61.37
2018-12-25T09:56:20.120Z,61.31
2018-12-25T09:58:49.809Z,61.31
2018-12-25T10:01:19.308Z,61.20
2018-12-25T10:03:49.054Z,61.13
2018-12-25T10:06:18.526Z,61.11
2018-12-25T10:08:48.349Z,61.03
2018-12-25T10:11:17.460Z,60.99
2018-12-25T10:13:46.362Z,60.78
2018-12-25T10:16:15.548Z,60.79
2018-12-25T10:18:45.040Z,60.81
2018-12-25T10:21:14.153Z,60.76
2018-12-25T10:23:43.440Z,60.77
2018-12-25T10:26:13.014Z,60.79
2018-12-25T10:28:41.960Z,60.77
2018-12-25T10:31:11.538Z,60.65
2018-12-25T10:33:40.645Z,60.49
2018-12-25T10:36:10.328Z,60.37
2018-12-25T10:38:39.252Z,60.32
2018-12-25T10:41:08.507Z,60.24
2018-12-25T10:43:37.745Z,60.16
2018-12-25T10:46:06.755Z,60.10
2018-12-25T10:48:36.227Z,59.98
2018-12-25T10:51:05.256Z,59.96
2018-12-25T10:53:34.350Z,59.91
2018-12-25T10:56:03.588Z,59.90
2018-12-25T10:58:32.798Z,59.84
2018-12-25T11:01:16.570Z,59.72
2018-12-25T11:03:45.419Z,59.79
2018-12-25T11:06:14.970Z,59.70
2018-12-25T11:08:44.468Z,59.51
2018-12-25T11:11:14.412Z,59.38
2018-12-25T11:13:43.687Z,59.38
2018-12-25T11:16:12.874Z,59.28
2018-12-25T11:18:49.107Z,59.23
2018-12-25T11:21:12.655Z,59.01
2018-12-25T11:23:42.188Z,58.84
2018-12-25T11:26:11.262Z,58.85
2018-12-25T11:28:40.362Z,58.78
2018-12-25T11:31:09.767Z,58.79
2018-12-25T11:33:39.372Z,58.67
2018-12-25T11:36:08.595Z,58.67
2018-12-25T11:38:37.447Z,58.52
2018-12-25T11:41:06.940Z,58.45
2018-12-25T11:43:36.125Z,58.52
2018-12-25T11:46:05.181Z,58.63
2018-12-25T11:48:35.056Z,58.70
2018-12-25T11:51:04.045Z,58.61
2018-12-25T11:53:33.745Z,58.57
2018-12-25T11:56:03.234Z,58.75
2018-12-25T11:58:32.350Z,58.64
2018-12-25T12:01:01.180Z,58.51
2018-12-25T12:03:30.547Z,58.56
2018-12-25T12:05:59.696Z,58.38
2018-12-25T12:08:28.811Z,58.35
2018-12-25T12:10:57.663Z,58.40
2018-12-25T12:13:26.518Z,58.39
2018-12-25T12:15:55.372Z,58.42
2018-12-25T12:18:24.504Z,58.34
2018-12-25T12:20:54.000Z,58.26
2018-12-25T12:23:22.839Z,58.27
2018-12-25T12:25:52.092Z,58.29
2018-12-25T12:28:21.312Z,58.33
2018-12-25T12:30:50.807Z,58.23
2018-12-25T12:33:20.101Z,58.24
2018-12-25T12:35:49.301Z,58.09
2018-12-25T12:38:18.582Z,58.04
2018-12-25T12:40:47.947Z,58.02
2018-12-25T12:43:17.365Z,58.03
2018-12-25T12:45:47.549Z,57.79
2018-12-25T12:48:17.054Z,57.82
2018-12-25T12:50:45.910Z,57.67
2018-12-25T12:53:15.541Z,58.12
2018-12-25T12:55:45.072Z,58.37
2018-12-25T12:58:14.330Z,58.46
2018-12-25T13:00:43.955Z,58.48
2018-12-25T13:03:13.562Z,58.48
2018-12-25T13:05:42.421Z,58.52
2018-12-25T13:08:11.357Z,58.50
2018-12-25T13:10:41.052Z,58.39
2018-12-25T13:13:10.572Z,58.39
2018-12-25T13:15:39.904Z,58.32
2018-12-25T13:18:09.169Z,58.39
2018-12-25T13:20:38.105Z,58.57
2018-12-25T13:23:07.267Z,58.53
2018-12-25T13:25:36.626Z,58.60
2018-12-25T13:28:05.904Z,58.54
2018-12-25T13:30:35.366Z,58.57
2018-12-25T13:33:04.541Z,58.58
2018-12-25T13:35:33.945Z,58.55
2018-12-25T13:38:02.911Z,58.54
2018-12-25T13:40:32.045Z,58.54
2018-12-25T13:43:00.896Z,58.81
2018-12-25T13:45:30.907Z,58.83
2018-12-25T13:48:00.604Z,58.85
2018-12-25T13:50:29.483Z,58.95
2018-12-25T13:53:02.752Z,59.14
2018-12-25T13:55:29.006Z,59.20
2018-12-25T13:57:58.709Z,59.32
2018-12-25T14:00:27.729Z,59.39
2018-12-25T14:02:56.737Z,59.45
2018-12-25T14:05:25.969Z,59.46
2018-12-25T14:07:55.184Z,59.46
2018-12-25T14:10:24.392Z,59.41
2018-12-25T14:12:53.889Z,59.50
2018-12-25T14:15:24.630Z,59.65
2018-12-25T14:17:54.007Z,59.78
2018-12-25T14:20:23.117Z,59.84
2018-12-25T14:22:52.036Z,59.86
2018-12-25T14:25:20.969Z,59.87
2018-12-25T14:27:49.895Z,59.91
2018-12-25T14:30:18.848Z,59.96
2018-12-25T14:32:48.308Z,60.11
2018-12-25T14:35:17.673Z,60.23
2018-12-25T14:37:47.118Z,60.32
2018-12-25T14:40:16.417Z,60.36
2018-12-25T14:42:46.044Z,60.40
2018-12-25T14:45:15.615Z,60.49
2018-12-25T14:47:44.713Z,60.60
2018-12-25T14:50:14.351Z,60.60
2018-12-25T14:52:43.775Z,60.62
2018-12-25T14:55:13.244Z,60.68
2018-12-25T14:57:42.156Z,60.62
2018-12-25T15:00:11.501Z,60.71
2018-12-25T15:02:40.768Z,60.82
2018-12-25T15:05:09.108Z,60.84
2018-12-25T15:07:38.372Z,60.99
2018-12-25T15:10:08.393Z,61.12
2018-12-25T15:12:37.669Z,61.21
2018-12-25T15:15:06.981Z,61.31
2018-12-25T15:17:36.173Z,61.27
2018-12-25T15:20:05.548Z,61.30
2018-12-25T15:22:35.311Z,61.44
2018-12-25T15:25:04.914Z,61.53
2018-12-25T15:27:33.777Z,61.55
2018-12-25T15:30:03.081Z,61.51
2018-12-25T15:32:32.319Z,61.40
2018-12-25T15:35:01.690Z,61.33
2018-12-25T15:37:31.271Z,61.40
2018-12-25T15:40:00.569Z,61.47
2018-12-25T15:42:29.883Z,61.62
2018-12-25T15:44:59.193Z,61.71
2018-12-25T15:47:29.005Z,61.81
2018-12-25T15:49:58.679Z,62.06
2018-12-25T15:52:28.628Z,62.38
2018-12-25T15:54:57.793Z,62.60
2018-12-25T15:57:27.125Z,62.62
2018-12-25T15:59:56.849Z,62.73
2018-12-25T16:02:26.157Z,62.93
2018-12-25T16:04:55.931Z,63.13
2018-12-25T16:07:25.561Z,63.28
2018-12-25T16:09:55.168Z,63.33
2018-12-25T16:12:24.729Z,63.29
2018-12-25T16:14:54.355Z,63.20
2018-12-25T16:17:23.907Z,63.08
2018-12-25T16:19:53.156Z,63.01
2018-12-25T16:22:22.022Z,62.99
2018-12-25T16:24:50.961Z,63.00
2018-12-25T16:27:19.981Z,63.03
2018-12-25T16:29:49.723Z,62.98
2018-12-25T16:32:18.929Z,62.94
2018-12-25T16:34:47.985Z,62.94
2018-12-25T16:37:17.594Z,62.97
2018-12-25T16:39:46.465Z,62.93
2018-12-25T16:42:15.678Z,62.84
2018-12-25T16:44:44.599Z,62.79
2018-12-25T16:47:13.931Z,62.70
2018-12-25T16:49:43.147Z,62.66
2018-12-25T16:52:12.068Z,62.62
2018-12-25T16:54:40.996Z,62.62
2018-12-25T16:57:11.149Z,62.50
2018-12-25T16:59:40.532Z,62.36
2018-12-25T17:02:09.773Z,62.36
2018-12-25T17:04:39.274Z,62.39
2018-12-25T17:07:08.197Z,62.33
2018-12-25T17:09:37.386Z,62.20
2018-12-25T17:12:06.570Z,62.03
2018-12-25T17:14:35.506Z,61.87
2018-12-25T17:17:04.429Z,61.82
2018-12-25T17:19:33.968Z,61.77
2018-12-25T17:22:03.384Z,61.74
2018-12-25T17:24:32.393Z,61.74
2018-12-25T17:27:01.499Z,61.68
2018-12-25T17:29:31.053Z,61.76
2018-12-25T17:31:59.973Z,61.80
2018-12-25T17:34:29.087Z,61.81
2018-12-25T17:36:57.939Z,61.88
2018-12-25T17:39:27.119Z,61.81
2018-12-25T17:41:56.708Z,61.73
2018-12-25T17:44:26.692Z,61.67
2018-12-25T17:46:56.190Z,61.61
2018-12-25T17:49:25.686Z,61.50
2018-12-25T17:51:55.730Z,61.50
2018-12-25T17:54:24.999Z,61.53
2018-12-25T17:56:54.294Z,61.43
2018-12-25T17:59:23.351Z,61.35
2018-12-25T18:01:54.431Z,61.32
2018-12-25T18:04:23.991Z,61.45
2018-12-25T18:06:53.177Z,61.50
2018-12-25T18:09:22.639Z,61.57
2018-12-25T18:11:51.936Z,61.56
2018-12-25T18:14:21.860Z,61.49
2018-12-25T18:16:50.721Z,61.45
2018-12-25T18:19:20.288Z,61.48
2018-12-25T18:21:49.109Z,61.49
2018-12-25T18:24:19.517Z,61.47
2018-12-25T18:26:48.859Z,61.46
2018-12-25T18:29:18.384Z,61.49
2018-12-25T18:31:47.233Z,61.50
2018-12-25T18:34:16.981Z,61.43
2018-12-25T18:36:46.488Z,61.44
2018-12-25T18:39:15.690Z,61.44
2018-12-25T18:41:44.544Z,61.49
2018-12-25T18:44:13.749Z,61.52
2018-12-25T18:46:42.698Z,61.50
2018-12-25T18:49:11.703Z,61.45
2018-12-25T18:51:40.582Z,61.42
2018-12-25T18:54:09.448Z,61.40
2018-12-25T18:56:39.066Z,61.41
2018-12-25T18:59:08.685Z,61.33
2018-12-25T19:01:38.277Z,61.25
2018-12-25T19:04:07.565Z,61.28
2018-12-25T19:06:36.420Z,61.32
2018-12-25T19:09:07.430Z,61.34
2018-12-25T19:11:36.692Z,61.39
2018-12-25T19:14:05.711Z,61.55
2018-12-25T19:16:35.261Z,61.64
2018-12-25T19:19:04.476Z,61.73
2018-12-25T19:21:33.704Z,61.83
2018-12-25T19:24:02.818Z,61.91
2018-12-25T19:26:32.408Z,62.08
2018-12-25T19:29:01.643Z,62.18
2018-12-25T19:31:30.495Z,62.20
2018-12-25T19:33:59.337Z,62.26
2018-12-25T19:36:28.614Z,62.31
2018-12-25T19:38:58.097Z,62.36
2018-12-25T19:41:27.033Z,62.47
2018-12-25T19:43:56.392Z,62.50
2018-12-25T19:46:25.761Z,62.52
2018-12-25T19:48:54.778Z,62.60
2018-12-25T19:51:24.060Z,62.60
2018-12-25T19:53:53.787Z,62.58
2018-12-25T19:56:23.069Z,62.64
2018-12-25T19:58:52.365Z,62.67
2018-12-25T20:01:21.606Z,62.67
2018-12-25T20:04:22.129Z,62.67
2018-12-25T20:07:21.770Z,62.71
2018-12-25T20:10:29.023Z,62.79
2018-12-25T20:13:34.592Z,62.90
2018-12-25T20:16:40.400Z,62.90
2018-12-25T20:19:43.283Z,63.15
2018-12-25T20:22:48.833Z,63.34
2018-12-25T20:25:57.435Z,63.14
2018-12-25T20:28:55.801Z,63.08
2018-12-25T20:32:01.270Z,63.09
2018-12-25T20:35:10.081Z,63.06
2018-12-25T20:38:22.381Z,63.27
2018-12-25T20:41:26.037Z,63.20
2018-12-25T20:44:41.490Z,63.26
2018-12-25T20:47:54.650Z,63.23
2018-12-25T20:51:15.545Z,63.31
2018-12-25T20:54:30.547Z,63.29
2018-12-25T20:57:36.185Z,63.29
2018-12-25T21:00:40.711Z,63.29
2018-12-25T21:03:55.844Z,63.44
2018-12-25T21:07:12.564Z,63.45
2018-12-25T21:10:18.042Z,63.40
2018-12-25T21:13:26.555Z,63.35
2018-12-25T21:16:30.685Z,63.48
2018-12-25T21:19:52.168Z,63.32
2018-12-25T21:22:57.974Z,63.16
2018-12-25T21:26:02.951Z,63.24
2018-12-25T21:28:34.105Z,63.12
2018-12-25T21:31:04.479Z,63.25
2018-12-25T21:33:33.540Z,63.14
2018-12-25T21:36:02.533Z,63.07
2018-12-25T21:38:31.920Z,63.00
2018-12-25T21:41:01.967Z,62.89
2018-12-25T21:43:31.730Z,62.81
2018-12-25T21:46:00.723Z,62.80
2018-12-25T21:48:30.065Z,62.75
2018-12-25T21:51:00.201Z,62.72
2018-12-25T21:53:30.342Z,62.70
2018-12-25T21:56:01.214Z,62.69
2018-12-25T21:58:30.846Z,62.68
2018-12-25T22:00:59.866Z,62.71
2018-12-25T22:03:29.169Z,62.74
2018-12-25T22:05:58.039Z,62.63
2018-12-25T22:08:27.239Z,62.54
2018-12-25T22:10:56.188Z,62.58
2018-12-25T22:13:25.969Z,62.62
2018-12-25T22:15:55.270Z,62.71
2018-12-25T22:18:25.212Z,62.70
2018-12-25T22:20:54.563Z,62.68
2018-12-25T22:23:24.221Z,62.71
2018-12-25T22:25:53.538Z,62.71
2018-12-25T22:28:22.872Z,62.69
2018-12-25T22:30:52.161Z,62.77
2018-12-25T22:33:21.350Z,62.74
2018-12-25T22:35:50.576Z,62.73
2018-12-25T22:38:19.979Z,62.75
2018-12-25T22:40:48.849Z,62.79
2018-12-25T22:43:18.013Z,62.75
2018-12-25T22:45:47.435Z,62.73
2018-12-25T22:48:16.637Z,62.79
2018-12-25T22:50:45.897Z,62.71
2018-12-25T22:53:14.817Z,62.71
2018-12-25T22:55:43.754Z,62.72
2018-12-25T22:58:13.546Z,62.76
2018-12-25T23:00:42.989Z,62.79
2018-12-25T23:03:12.472Z,62.77
2018-12-25T23:05:42.207Z,62.78
2018-12-25T23:08:11.434Z,62.74
2018-12-25T23:10:40.569Z,62.69
2018-12-25T23:13:09.862Z,62.68
2018-12-25T23:15:39.463Z,62.71
2018-12-25T23:18:08.368Z,62.70
2018-12-25T23:20:37.713Z,62.72
2018-12-25T23:23:07.478Z,62.69
2018-12-25T23:25:44.413Z,62.67
2018-12-25T23:28:08.652Z,62.68
2018-12-25T23:30:38.436Z,62.75
2018-12-25T23:33:07.819Z,62.81
2018-12-25T23:35:36.666Z,62.90
2018-12-25T23:38:06.277Z,62.92
2018-12-25T23:40:35.198Z,62.98
2018-12-25T23:43:04.312Z,62.97
2018-12-25T23:45:33.161Z,63.00
2018-12-25T23:48:02.413Z,63.00
2018-12-25T23:50:31.557Z,63.00
2018-12-25T23:53:00.917Z,63.06
2018-12-25T23:55:30.282Z,63.03
2018-12-25T23:57:59.397Z,63.04
